NKS2681 KEWR-KLAS
Flight info
| Callsign | NKS2681 |
|---|---|
| Flight time | N/A |
| Altitude | 34000 |
| Route | NEWEL J60 DJB JOT IOW OVR MCK HBU J146 DVC TYEGR CHOWW4 |
| Aircraft | A320/M-SDE3FGHIRWY/LB1 |
Departure
| Time | 2026-05-04 18:29 |
|---|---|
| Airport | Newark Liberty International Airport (KEWR) |
Arrival
| Time | N/A |
|---|---|
| Airport | Harry Reid International Airport (KLAS) |
| Time | Latitude | Longitude | Altitude | Speed | Heading |
|---|---|---|---|---|---|
| 2026-05-04 18:10 | 40.68836 | -74.17639 | 22 ft | 0 kts | 232° |
| 2026-05-04 18:15 | 40.68830 | -74.17649 | 24 ft | 0 kts | 232° |
| 2026-05-04 18:16 | 40.68833 | -74.17644 | 23 ft | 0 kts | 232° |
| 2026-05-04 18:18 | 40.68833 | -74.17643 | 23 ft | 0 kts | 232° |
| 2026-05-04 18:19 | 40.68852 | -74.17611 | 23 ft | 3 kts | 220° |
| 2026-05-04 18:19 | 40.68868 | -74.17601 | 24 ft | 3 kts | 179° |
| 2026-05-04 18:19 | 40.68887 | -74.17604 | 24 ft | 2 kts | 165° |
| 2026-05-04 18:20 | 40.68891 | -74.17605 | 24 ft | 0 kts | 165° |
| 2026-05-04 18:23 | 40.68877 | -74.17585 | 23 ft | 4 kts | 119° |
| 2026-05-04 18:23 | 40.68861 | -74.17543 | 23 ft | 6 kts | 116° |
| 2026-05-04 18:24 | 40.68841 | -74.17489 | 22 ft | 7 kts | 116° |
| 2026-05-04 18:24 | 40.68817 | -74.17422 | 22 ft | 9 kts | 116° |
| 2026-05-04 18:24 | 40.68790 | -74.17351 | 22 ft | 6 kts | 116° |
| 2026-05-04 18:24 | 40.68803 | -74.17302 | 24 ft | 7 kts | 34° |
| 2026-05-04 18:25 | 40.68857 | -74.17267 | 22 ft | 12 kts | 26° |
| 2026-05-04 18:25 | 40.68941 | -74.17213 | 22 ft | 15 kts | 26° |
| 2026-05-04 18:25 | 40.69038 | -74.17153 | 21 ft | 16 kts | 25° |
| 2026-05-04 18:25 | 40.69142 | -74.17086 | 22 ft | 17 kts | 25° |
| 2026-05-04 18:26 | 40.69252 | -74.17015 | 22 ft | 18 kts | 27° |
| 2026-05-04 18:26 | 40.69366 | -74.16944 | 23 ft | 19 kts | 26° |
| 2026-05-04 18:26 | 40.69486 | -74.16868 | 22 ft | 20 kts | 26° |
| 2026-05-04 18:26 | 40.69613 | -74.16786 | 22 ft | 20 kts | 26° |
| 2026-05-04 18:27 | 40.69743 | -74.16703 | 21 ft | 21 kts | 26° |
| 2026-05-04 18:27 | 40.69851 | -74.16634 | 21 ft | 16 kts | 25° |
| 2026-05-04 18:27 | 40.69947 | -74.16574 | 21 ft | 15 kts | 26° |
| 2026-05-04 18:27 | 40.70043 | -74.16512 | 21 ft | 15 kts | 26° |
| 2026-05-04 18:28 | 40.70063 | -74.16452 | 20 ft | 8 kts | 95° |
| 2026-05-04 18:28 | 40.70058 | -74.16373 | 20 ft | 5 kts | 100° |
| 2026-05-04 18:28 | 40.70026 | -74.16363 | 19 ft | 6 kts | 204° |
| 2026-05-04 18:28 | 40.69948 | -74.16415 | 19 ft | 30 kts | 206° |
| 2026-05-04 18:29 | 40.69561 | -74.16660 | 23 ft | 90 kts | 206° |
| 2026-05-04 18:29 | 40.68845 | -74.17118 | 23 ft | 136 kts | 205° |
| 2026-05-04 18:29 | 40.67889 | -74.17729 | 221 ft | 158 kts | 208° |
| 2026-05-04 18:29 | 40.66867 | -74.18187 | 936 ft | 156 kts | 184° |
| 2026-05-04 18:30 | 40.64594 | -74.18377 | 1505 ft | 185 kts | 218° |
| 2026-05-04 18:30 | 40.63514 | -74.19484 | 1820 ft | 209 kts | 223° |
| 2026-05-04 18:30 | 40.62664 | -74.21124 | 2166 ft | 231 kts | 252° |
| 2026-05-04 18:31 | 40.62590 | -74.23283 | 2838 ft | 244 kts | 280° |
| 2026-05-04 18:31 | 40.63179 | -74.25410 | 3668 ft | 250 kts | 289° |
| 2026-05-04 18:31 | 40.63863 | -74.27537 | 4492 ft | 255 kts | 289° |
| 2026-05-04 18:31 | 40.64560 | -74.29698 | 5356 ft | 256 kts | 290° |
| 2026-05-04 18:32 | 40.65255 | -74.31849 | 6323 ft | 254 kts | 291° |
| 2026-05-04 18:32 | 40.65944 | -74.33985 | 7177 ft | 254 kts | 291° |
| 2026-05-04 18:32 | 40.66635 | -74.36134 | 7938 ft | 256 kts | 291° |
| 2026-05-04 18:32 | 40.67335 | -74.38316 | 8655 ft | 261 kts | 291° |
| 2026-05-04 18:33 | 40.68045 | -74.40533 | 9419 ft | 264 kts | 291° |
| 2026-05-04 18:33 | 40.68761 | -74.42771 | 10149 ft | 266 kts | 291° |
| 2026-05-04 18:33 | 40.69503 | -74.45098 | 10397 ft | 287 kts | 291° |
| 2026-05-04 18:33 | 40.70305 | -74.47620 | 10549 ft | 307 kts | 291° |
| 2026-05-04 18:34 | 40.71131 | -74.50217 | 11005 ft | 315 kts | 291° |
| 2026-05-04 18:34 | 40.71982 | -74.52894 | 11625 ft | 318 kts | 291° |
| 2026-05-04 18:34 | 40.72842 | -74.55590 | 12240 ft | 321 kts | 292° |
| 2026-05-04 18:34 | 40.73710 | -74.58310 | 12876 ft | 323 kts | 291° |
| 2026-05-04 18:35 | 40.74586 | -74.61060 | 13512 ft | 326 kts | 291° |
| 2026-05-04 18:35 | 40.75464 | -74.63826 | 14096 ft | 329 kts | 292° |
| 2026-05-04 18:35 | 40.76350 | -74.66622 | 14653 ft | 331 kts | 291° |
| 2026-05-04 18:35 | 40.77242 | -74.69436 | 15194 ft | 334 kts | 291° |
| 2026-05-04 18:36 | 40.78140 | -74.72269 | 15751 ft | 336 kts | 292° |
| 2026-05-04 18:36 | 40.79043 | -74.75122 | 16294 ft | 338 kts | 292° |
| 2026-05-04 18:36 | 40.79952 | -74.78003 | 16834 ft | 340 kts | 292° |
| 2026-05-04 18:36 | 40.80864 | -74.80896 | 17358 ft | 343 kts | 292° |
| 2026-05-04 18:37 | 40.81782 | -74.83809 | 17895 ft | 345 kts | 292° |
| 2026-05-04 18:37 | 40.82709 | -74.86750 | 18417 ft | 348 kts | 292° |
| 2026-05-04 18:37 | 40.83639 | -74.89711 | 18883 ft | 350 kts | 292° |
| 2026-05-04 18:37 | 40.84574 | -74.92693 | 19373 ft | 352 kts | 292° |
| 2026-05-04 18:38 | 40.85516 | -74.95690 | 19857 ft | 355 kts | 292° |
| 2026-05-04 18:38 | 40.86462 | -74.98705 | 20354 ft | 356 kts | 292° |
| 2026-05-04 18:38 | 40.87413 | -75.01741 | 20828 ft | 358 kts | 292° |
| 2026-05-04 18:38 | 40.88357 | -75.04762 | 21287 ft | 360 kts | 292° |
| 2026-05-04 18:39 | 40.89312 | -75.07829 | 21726 ft | 362 kts | 293° |
| 2026-05-04 18:39 | 40.90275 | -75.10919 | 22159 ft | 364 kts | 293° |
| 2026-05-04 18:39 | 40.91093 | -75.14094 | 22573 ft | 367 kts | 284° |
| 2026-05-04 18:39 | 40.91415 | -75.17460 | 22983 ft | 372 kts | 273° |
| 2026-05-04 18:40 | 40.91213 | -75.20897 | 23392 ft | 379 kts | 263° |
| 2026-05-04 18:40 | 40.90507 | -75.24282 | 23762 ft | 384 kts | 256° |
| 2026-05-04 18:40 | 40.89692 | -75.27657 | 24105 ft | 386 kts | 257° |
| 2026-05-04 18:40 | 40.88890 | -75.31056 | 24458 ft | 388 kts | 257° |
| 2026-05-04 18:41 | 40.88090 | -75.34478 | 24810 ft | 390 kts | 257° |
| 2026-05-04 18:41 | 40.87290 | -75.37911 | 25150 ft | 392 kts | 257° |
| 2026-05-04 18:41 | 40.86486 | -75.41356 | 25494 ft | 394 kts | 257° |
| 2026-05-04 18:41 | 40.85676 | -75.44818 | 25819 ft | 395 kts | 257° |
| 2026-05-04 18:42 | 40.84858 | -75.48294 | 26137 ft | 397 kts | 257° |
| 2026-05-04 18:42 | 40.84034 | -75.51789 | 26435 ft | 399 kts | 257° |
| 2026-05-04 18:42 | 40.83216 | -75.55248 | 26752 ft | 401 kts | 257° |
| 2026-05-04 18:42 | 40.82380 | -75.58770 | 27069 ft | 403 kts | 257° |
| 2026-05-04 18:43 | 40.81539 | -75.62302 | 27360 ft | 405 kts | 257° |
| 2026-05-04 18:43 | 40.80687 | -75.65873 | 27681 ft | 407 kts | 257° |
| 2026-05-04 18:43 | 40.79832 | -75.69456 | 27981 ft | 410 kts | 257° |
| 2026-05-04 18:43 | 40.78976 | -75.73050 | 28304 ft | 412 kts | 257° |
| 2026-05-04 18:44 | 40.78112 | -75.76667 | 28612 ft | 413 kts | 257° |
| 2026-05-04 18:44 | 40.77537 | -75.79065 | 28829 ft | 414 kts | 257° |
| 2026-05-04 18:44 | 40.76376 | -75.83882 | 29501 ft | 411 kts | 257° |
| 2026-05-04 18:44 | 40.75509 | -75.87460 | 29994 ft | 409 kts | 257° |
| 2026-05-04 18:45 | 40.74645 | -75.91021 | 30382 ft | 408 kts | 257° |